METAR Data
IDs: Format: Raw Decoded Include TAF

Data at: 0801 UTC 23 Sep 2018

KASL 230755Z AUTO 00000KT 4SM OVC003 21/20 A2994 RMK AO1 P0002 T02110200
KASL 230735Z AUTO 00000KT 10SM OVC003 21/20 A2994 RMK AO1 T02110200
KASL 230715Z AUTO 00000KT 10SM OVC005 21/20 A2994 RMK AO1 T02110200
KASL 230655Z AUTO 09004KT 10SM OVC005 21/20 A2994 RMK AO1 P0009 T02110200
KASL 230635Z AUTO 06004KT 10SM OVC005 21/20 A2995 RMK AO1 P0009 T02110200
KASL 230615Z AUTO 06003KT 5SM OVC005 21/20 A2994 RMK AO1 P0003 T02110200
KASL 230555Z AUTO 07004KT 10SM OVC005 21/20 A2995 RMK AO1 60001 T02110200 10240 20211 402450211
KASL 230535Z AUTO 08004KT 10SM OVC003 21/20 A2995 RMK AO1 T02110200
KASL 230515Z AUTO 00000KT 10SM OVC003 21/20 A2995 RMK AO1 T02110200
KASL 230455Z AUTO 05004KT 10SM OVC003 22/21 A2995 RMK AO1 T02180206
KASL 230435Z AUTO 00000KT 10SM OVC003 23/21 A2995 RMK AO1 T02250213
KASL 230415Z AUTO 07003KT 5SM OVC003 23/22 A2995 RMK AO1 T02270216
KASL 230355Z AUTO 10003KT 5SM OVC003 23/22 A2995 RMK AO1 T02270216
KASL 230335Z AUTO 07004KT 7SM OVC003 23/22 A2995 RMK AO1 T02270216
KASL 230315Z AUTO 09006KT 7SM OVC005 23/22 A2996 RMK AO1 T02270215
KASL 230255Z AUTO 09006KT 10SM OVC005 23/22 A2996 RMK AO1 60001 T02280216
KASL 230235Z AUTO 09004KT 7SM OVC005 23/22 A2996 RMK AO1 T02330221
KASL 230215Z AUTO 09004KT 10SM OVC005 23/22 A2996 RMK AO1 T02330222
KASL 230155Z AUTO 00000KT 10SM OVC005 23/22 A2995 RMK AO1 T02320220
KASL 230135Z AUTO 09003KT 10SM BKN005 BKN009 OVC028 24/22 A2994 RMK AO1 T02350223
KASL 230115Z AUTO 09004KT 10SM BKN005 OVC012 24/23 A2994 RMK AO1 T02380226
KASL 230055Z AUTO 09004KT 10SM SCT005 BKN012 OVC019 24/23 A2993 RMK AO1 P0001 T02370225
KASL 230035Z AUTO 09004KT 10SM SCT005 BKN012 OVC022 24/23 A2993 RMK AO1 T02400227
KASL 230015Z AUTO 10003KT 10SM SCT005 BKN016 OVC075 24/23 A2993 RMK AO1 T02400227
KASL 222355Z AUTO 08005KT 3SM SCT007 BKN035 OVC090 24/23 A2993 RMK AO1 P0011 60045 T02400227 10245 20226
KASL 222335Z AUTO 09004KT 1 1/4SM BKN007 OVC011 24/23 A2993 RMK AO1 VIS 1/2V3 P0007 T02400226
KASL 222315Z AUTO 00000KT 10SM BKN007 OVC017 24/23 A2994 RMK AO1 P0001 T02400226
KASL 222255Z AUTO 09004KT 10SM SCT005 BKN013 OVC055 24/23 A2993 RMK AO1 P0026 T02400226
KASL 222235Z AUTO 08003KT 1SM BKN008 OVC034 24/23 A2993 RMK AO1 P0025 T02400226
KASL 222215Z AUTO 09004KT 1SM OVC008 24/23 A2993 RMK AO1 VIS 1/2V3 P0011 T02400226
KASL 222155Z AUTO 00000KT 2 1/2SM BKN008 OVC012 24/23 A2993 RMK AO1 VIS 2V4 P0003 T02400225
KASL 222135Z AUTO 00000KT 10SM OVC010 24/23 A2993 RMK AO1 P0001 T02400225
KASL 222115Z AUTO 00000KT 10SM OVC008 24/22 A2993 RMK AO1 P0001 T02400223
KASL 222055Z AUTO 09003KT 10SM SCT008 BKN013 OVC025 24/23 A2994 RMK AO1 60005 T02430227
KASL 222035Z AUTO 09003KT 10SM SCT008 BKN011 OVC025 24/22 A2993 RMK AO1 T02400223
KASL 222015Z AUTO 09003KT 10SM OVC006 24/22 A2994 RMK AO1 T02400223
KASL 221955Z AUTO 09003KT 10SM OVC006 24/23 A2995 RMK AO1 T02400225
KASL 221935Z AUTO 09005KT 10SM BKN006 OVC019 24/23 A2996 RMK AO1 T02400226
KASL 221915Z AUTO 00000KT 10SM BKN004 OVC019 24/23 A2996 RMK AO1 T02400226
KASL 221855Z AUTO 06003KT 10SM SCT004 BKN009 OVC090 24/23 A2997 RMK AO1 P0005 T02400227
KASL 221835Z AUTO 00000KT 5SM OVC007 24/23 A2998 RMK AO1 P0005 T02390226
KASL 221815Z AUTO 00000KT 7SM OVC007 23/22 A2998 RMK AO1 P0001 T02270215
KASL 221755Z AUTO 00000KT 10SM OVC007 23/22 A2998 RMK AO1 60120 T02270215 10235 20223
KASL 221735Z AUTO 08003KT 10SM OVC005 23/21 A3000 RMK AO1 T02250214
KASL 221715Z AUTO 00000KT 10SM OVC009 23/21 A3000 RMK AO1 T02260214
KASL 221655Z AUTO 00000KT 10SM SCT005 OVC009 23/22 A3000 RMK AO1 P0001 T02250215
KASL 221635Z AUTO 00000KT 10SM OVC005 23/21 A3000 RMK AO1 P0001 T02250214
KASL 221615Z AUTO 00000KT 10SM BKN005 OVC009 23/21 A3001 RMK AO1 T02250213
KASL 221555Z AUTO 00000KT 10SM SCT009 SCT055 OVC065 23/21 A3001 RMK AO1 P0002 T02250214
KASL 221535Z AUTO 00000KT 7SM SCT050 BKN065 OVC090 23/21 A3000 RMK AO1 P0001 T02250213
KASL 221515Z AUTO 00000KT 10SM SCT048 BKN095 OVC120 23/21 A3000 RMK AO1 P0001 T02250213
KASL 221455Z AUTO 00000KT 4SM SCT014 BKN075 OVC095 23/21 A2999 RMK AO1 P0032 60116 T02250213
KASL 221435Z AUTO 16006KT 2SM BKN009 OVC041 22/21 A3000 RMK AO1 VIS 1/2V5 P0020 T02230211
KASL 221415Z AUTO 17004KT 1 1/2SM BKN009 OVC014 22/21 A3001 RMK AO1 P0010 T02240212
KASL 221355Z AUTO 00000KT 1 1/4SM BKN007 BKN010 OVC019 23/21 A3000 RMK AO1 P0068 T02250213
KASL 221335Z AUTO 20003KT 1/4SM OVC005 23/21 A3000 RMK AO1 P0046 T02250213
KASL 221315Z AUTO 00000KT 3SM BKN016 OVC038 23/21 A2998 RMK AO1 P0003 T02250214
KASL 221255Z AUTO 00000KT 5SM SCT004 BKN018 OVC036 23/21 A2998 RMK AO1 P0016 T02250213
KASL 221235Z AUTO 00000KT 5SM SCT004 OVC015 23/21 A2998 RMK AO1 P0016 T02250213
KASL 221215Z AUTO 00000KT 1SM OVC004 23/21 A2997 RMK AO1 P0015 T02250213
KASL 221155Z AUTO 00000KT 4SM OVC004 23/21 A2997 RMK AO1 P0002 60002 70106 T02250213 10225 20225
KASL 221135Z AUTO 09003KT 7SM OVC006 23/21 A2998 RMK AO1 P0001 T02250213
KASL 221115Z AUTO 00000KT 7SM BKN004 OVC011 23/21 A2997 RMK AO1 P0001 T02250213
KASL 221055Z AUTO 00000KT 10SM OVC004 23/21 A2997 RMK AO1 T02250213
KASL 221035Z AUTO 00000KT 10SM OVC004 23/21 A2997 RMK AO1 T02250213
KASL 221015Z AUTO 00000KT 7SM OVC004 23/21 A2997 RMK AO1 T02250213
KASL 220955Z AUTO 00000KT 10SM BKN004 OVC014 23/21 A2998 RMK AO1 T02250213
KASL 220935Z AUTO 00000KT 10SM BKN006 OVC017 23/21 A2998 RMK AO1 T02250213
KASL 220915Z AUTO 00000KT 10SM BKN006 OVC024 23/21 A2998 RMK AO1 T02250213
KASL 220855Z AUTO 00000KT 10SM BKN006 BKN013 OVC075 23/21 A2998 RMK AO1 T02250213
KASL 220835Z AUTO 00000KT 10SM BKN013 BKN120 23/21 A2998 RMK AO1 T02250213
KASL 220815Z AUTO 00000KT 10SM SCT011 BKN075 BKN120 23/21 A2999 RMK AO1 T02250213
KASL 220755Z AUTO 00000KT 10SM BKN075 OVC090 23/21 A2999 RMK AO1 T02250213
KASL 220735Z AUTO 00000KT 10SM SCT005 SCT041 BKN090 23/21 A3000 RMK AO1 T02250213
KASL 220715Z AUTO 00000KT 10SM SCT005 SCT041 OVC110 23/21 A3000 RMK AO1 T02250213
KASL 220655Z AUTO 00000KT 10SM SCT005 BKN095 23/21 A3001 RMK AO1 T02250213
KASL 220635Z AUTO 09003KT 10SM SCT005 23/21 A3001 RMK AO1 T02250213
KASL 220615Z AUTO 00000KT 10SM SCT005 23/21 A3001 RMK AO1 T02250213
KASL 220555Z AUTO 00000KT 10SM SCT090 23/21 A3002 RMK AO1 T02250213 10240 20225 402950225
KASL 220535Z AUTO 00000KT 10SM SCT090 SCT120 23/21 A3002 RMK AO1 T02250213
KASL 220515Z AUTO 00000KT 10SM SCT110 23/21 A3003 RMK AO1 T02250213
KASL 220455Z AUTO 09004KT 10SM BKN110 23/21 A3003 RMK AO1 T02250213
KASL 220435Z AUTO 00000KT 10SM CLR 23/21 A3003 RMK AO1 T02250213
KASL 220415Z AUTO 00000KT 10SM CLR 23/21 A3003 RMK AO1 T02250213
KASL 220355Z AUTO 00000KT 10SM CLR 23/21 A3003 RMK AO1 T02250213
KASL 220335Z AUTO 00000KT 10SM CLR 23/21 A3002 RMK AO1 T02250213
KASL 220315Z AUTO 00000KT 10SM CLR 23/21 A3002 RMK AO1 T02250213
KASL 220255Z AUTO 00000KT 10SM CLR 23/21 A3002 RMK AO1 T02250213
KASL 220235Z AUTO 00000KT 10SM CLR 23/21 A3001 RMK AO1 T02250214
KASL 220215Z AUTO 00000KT 10SM CLR 23/22 A3000 RMK AO1 T02270215
KASL 220155Z AUTO 00000KT 10SM CLR 23/21 A2999 RMK AO1 T02270214
KASL 220135Z AUTO 00000KT 10SM CLR 23/22 A2999 RMK AO1 T02260215
KASL 220115Z AUTO 00000KT 10SM CLR 23/21 A3000 RMK AO1 T02250212
KASL 220055Z AUTO 00000KT 10SM CLR 23/22 A3000 RMK AO1 T02280215
KASL 220035Z AUTO 00000KT 10SM SCT028 SCT032 SCT120 24/22 A3001 RMK AO1 T02360221
KASL 220015Z AUTO 00000KT 10SM SCT120 24/22 A3001 RMK AO1 T02390222
KASL 212355Z AUTO 00000KT 10SM SCT070 SCT075 BKN120 24/22 A3001 RMK AO1 60004 T02400221 10268 20225
KASL 212335Z AUTO 16003KT 10SM SCT060 BKN090 OVC120 24/22 A3001 RMK AO1 T02400220
KASL 212315Z AUTO 00000KT 10SM BKN090 BKN110 24/22 A3000 RMK AO1 T02400220
KASL 212255Z AUTO 00000KT 10SM SCT090 SCT110 24/22 A2999 RMK AO1 T02400218
KASL 212235Z AUTO 16004KT 10SM SCT019 SCT031 BKN090 24/22 A2999 RMK AO1 T02400217
KASL 212215Z AUTO 15003KT 10SM BKN020 BKN030 OVC120 25/22 A3000 RMK AO1 T02450223
KASL 212155Z AUTO 19010KT 10SM BKN018 BKN029 OVC120 25/22 A3000 RMK AO1 T02500224
KASL 212135Z AUTO 17006KT 10SM SCT018 BKN110 26/23 A2999 RMK AO1 T02600233
KASL 212115Z AUTO 17005KT 10SM BKN110 26/24 A2998 RMK AO1 T02610236
KASL 212055Z AUTO 16003KT 10SM CLR 26/23 A2999 RMK AO1 60004 T02610231
KASL 212035Z AUTO 00000KT 10SM CLR 27/23 A2998 RMK AO1 T02670230
KASL 212015Z AUTO 08004KT 10SM CLR 25/23 A2997 RMK AO1 T02500230